ENDU

Bardufoss Airport

Målselv, Norway
METAR ENDU 160950Z 00000KT 9999 -SHRA FEW030 SCT040 BKN050 07/04 Q1010 TEMPO 22010KT RMK WIND 1100FT 21007KT WIND 2200FT 21017KT
Observed Flight Rules
Nov-16 @ 09:50 UTC (22 minutes ago) Visual Flight Rules
Visibility Clouds Conditions
10,000+ meters
  • Few at 3,000' AGL
  • Scattered at 4,000' AGL
  • Broken at 5,000' AGL
  • Light Rain
Temperatures Readings
Current 7°C / 45°F
Dewpoint 4°C / 39°F
Humidity 81%
Altimeter 29.82" Hg
Pressure 1010 hPa
Elevation 79
METAR ENDU 160950Z 00000KT 9999 -SHRA FEW030 SCT040 BKN050 07/04 Q1010 TEMPO 22010KT RMK WIND 1100FT 21007KT WIND 2200FT 21017KT
Observed Flight Rules
Nov-16 @ 09:50 UTC
(22 minutes ago)
VFR
Clouds
  • Few at 3,000' AGL
  • Scattered at 4,000' AGL
  • Broken at 5,000' AGL
Conditions
  • Light Rain
Temperature Dewpoint
7°C / 45°F 4°C / 39°F
Humidity Altimeter Pressure
81% 29.82" Hg 1010 hPa